Indio, CA (92203)

10:00 PM PDT on August 29, 2016 (GMT -0700)
SCSH Golf Course | | Change Station

Elev 20 ft 33.75 °N, 116.24 °W | Updated 5 seconds ago

Clear
Clear
95.0 °F
Feels Like 92 °F
N
2.2
Wind Variable Wind from WNW
Gusts 6.0 mph

Today
High -- | Low -- °F
--% Chance of Precip.
Yesterday
High -- | Low -- °F
Precip. -- in
Pressure 29.79 in
Visibility 10.0 miles
Clouds Clear
Heat Index 92 °F
Dew Point 51 °F
Humidity 23%
Rainfall 0.00 in
Snow Depth Not available.
6:17 AM 7:14 PM
Waning Crescent, 5% visible
METAR KPSP 300453Z 00000KT 10SM CLR 37/07 A2980 RMK AO2 SLP086 T03720072
Pressure 29.79 in
Visibility 10.0 miles
Clouds Clear
Heat Index 92 °F
Dew Point 51 °F
Humidity 23%
Rainfall 0.00 in
Snow Depth Not available.
6:17 AM 7:14 PM
Waning Crescent, 5% visible
METAR KPSP 300453Z 00000KT 10SM CLR 37/07 A2980 RMK AO2 SLP086 T03720072

10-Day Weather Forecast

Almanac

Astronomy

Aug. 29, 2016 Rise Set
Actual Time
Civil Twilight
Nautical Twilight
Astronomical Twilight
Moon
Length of Visible Light
Length of Day
Tomorrow will be .
, % of the Moon is Illuminated

Today's Extremes

State Highs State Lows

Community

WunderPhotos

Upload Photos

1,935,791 photos uploaded!

WunderBlog® & News

Nearby

Air Quality

  Air Quality AQ Index Pollutant
Not available.

Snow Depth

Station Depth Elevation

Earthquake Activity

City Distance Mag. Time & Date
Minimum magnitude displayed is 2.5.

Coastal Water Temperatures

Place Temperature

Stations

Nearby Weather Stations

Station Location Temp. Windchill Dew Point Humidity Wind Precip. Elev Updated Type
                   

Watches & Warnings

There are currently no watches in effect.